createdAt,value
2022-12-03T00:01:20.034Z,22.20
2022-12-03T00:03:47.820Z,19.92
2022-12-03T00:06:15.396Z,19.87
2022-12-03T00:08:42.775Z,21.00
2022-12-03T00:11:10.445Z,20.40
2022-12-03T00:13:37.874Z,18.15
2022-12-03T00:16:05.563Z,21.55
2022-12-03T00:18:33.354Z,23.87
2022-12-03T00:21:00.868Z,20.42
2022-12-03T00:23:28.311Z,18.40
2022-12-03T00:25:56.013Z,18.67
2022-12-03T00:28:23.533Z,21.73
2022-12-03T00:30:54.106Z,19.70
2022-12-03T00:33:22.418Z,20.48
2022-12-03T00:35:49.859Z,20.08
2022-12-03T00:38:17.396Z,21.05
2022-12-03T00:40:45.111Z,18.83
2022-12-03T00:43:12.514Z,19.80
2022-12-03T00:45:39.899Z,19.02
2022-12-03T00:48:07.614Z,21.20
2022-12-03T00:50:35.038Z,19.15
2022-12-03T00:53:02.457Z,21.05
2022-12-03T00:55:30.080Z,20.83
2022-12-03T00:57:57.513Z,19.90
2022-12-03T01:00:25.395Z,17.83
2022-12-03T01:02:53.294Z,23.83
2022-12-03T01:05:21.159Z,19.05
2022-12-03T01:07:48.635Z,16.63
2022-12-03T01:10:16.526Z,22.05
2022-12-03T01:12:43.962Z,20.95
2022-12-03T01:15:11.720Z,20.02
2022-12-03T01:17:39.782Z,22.55
2022-12-03T01:20:09.005Z,20.33
2022-12-03T01:22:36.434Z,20.23
2022-12-03T01:25:04.593Z,19.45
2022-12-03T01:27:32.010Z,23.75
2022-12-03T01:29:59.501Z,25.48
2022-12-03T01:32:27.202Z,28.27
2022-12-03T01:34:56.054Z,34.42
2022-12-03T01:37:25.771Z,45.67
2022-12-03T01:39:53.746Z,49.78
2022-12-03T01:42:27.381Z,54.70
2022-12-03T01:44:57.899Z,62.83
2022-12-03T01:47:37.053Z,53.95
2022-12-03T01:50:07.577Z,54.97
2022-12-03T01:52:39.119Z,47.60
2022-12-03T01:55:14.043Z,42.05
2022-12-03T01:57:43.079Z,40.60
2022-12-03T02:00:19.840Z,40.30
2022-12-03T02:02:51.736Z,41.10
2022-12-03T02:05:22.838Z,44.25
2022-12-03T02:07:50.697Z,40.65
2022-12-03T02:10:22.235Z,45.80
2022-12-03T02:13:09.686Z,38.08
2022-12-03T02:15:39.302Z,38.38
2022-12-03T02:18:08.894Z,41.60
2022-12-03T02:20:46.014Z,40.45
2022-12-03T02:23:24.998Z,35.03
2022-12-03T02:25:52.654Z,37.38
2022-12-03T02:28:20.455Z,42.80
2022-12-03T02:30:47.934Z,37.17
2022-12-03T02:33:15.558Z,33.08
2022-12-03T02:35:43.465Z,37.67
2022-12-03T02:38:19.922Z,30.55
2022-12-03T02:40:52.160Z,41.75
2022-12-03T02:43:21.154Z,39.67
2022-12-03T02:45:53.114Z,31.35
2022-12-03T02:48:28.410Z,35.50
2022-12-03T02:50:59.736Z,35.30
2022-12-03T02:53:31.074Z,36.80
2022-12-03T02:56:01.428Z,32.33
2022-12-03T02:58:31.574Z,32.78
2022-12-03T03:01:01.715Z,36.17
2022-12-03T03:03:30.950Z,34.05
2022-12-03T03:06:00.957Z,47.03
2022-12-03T03:08:29.139Z,40.38
2022-12-03T03:10:57.866Z,43.45
2022-12-03T03:13:25.637Z,38.80
2022-12-03T03:15:53.289Z,34.95
2022-12-03T03:18:20.823Z,32.80
2022-12-03T03:20:48.698Z,33.00
2022-12-03T03:23:19.604Z,33.08
2022-12-03T03:25:52.158Z,31.60
2022-12-03T03:28:23.058Z,42.33
2022-12-03T03:30:51.373Z,40.25
2022-12-03T03:33:19.078Z,34.33
2022-12-03T03:35:48.772Z,43.65
2022-12-03T03:38:19.682Z,36.07
2022-12-03T03:40:50.958Z,45.83
2022-12-03T03:43:20.237Z,40.50
2022-12-03T03:45:49.003Z,35.80
2022-12-03T03:48:16.561Z,33.00
2022-12-03T03:50:44.675Z,36.47
2022-12-03T03:53:13.146Z,30.75
2022-12-03T03:55:40.933Z,39.42
2022-12-03T03:58:08.574Z,41.85
2022-12-03T04:00:36.902Z,39.85
2022-12-03T04:03:05.947Z,39.03
2022-12-03T04:05:33.722Z,37.03
2022-12-03T04:08:01.296Z,39.22
2022-12-03T04:10:47.535Z,41.47
2022-12-03T04:13:15.039Z,37.42
2022-12-03T04:15:43.078Z,33.97
2022-12-03T04:18:29.187Z,35.72
2022-12-03T04:21:16.809Z,31.67
2022-12-03T04:23:44.371Z,39.20
2022-12-03T04:26:30.783Z,35.03
2022-12-03T04:28:58.219Z,37.43
2022-12-03T04:31:44.820Z,34.10
2022-12-03T04:34:30.961Z,31.12
2022-12-03T04:36:58.721Z,32.80
2022-12-03T04:39:26.170Z,28.67
2022-12-03T04:41:53.679Z,33.73
2022-12-03T04:44:33.450Z,34.50
2022-12-03T04:47:12.778Z,29.75
2022-12-03T04:49:46.289Z,32.50
2022-12-03T04:52:15.445Z,29.10
2022-12-03T04:54:43.464Z,31.07
2022-12-03T04:57:11.874Z,25.80
2022-12-03T04:59:39.730Z,26.90
2022-12-03T05:02:07.853Z,25.95
2022-12-03T05:04:35.396Z,23.98
2022-12-03T05:07:02.844Z,19.10
2022-12-03T05:09:30.567Z,22.08
2022-12-03T05:11:58.024Z,25.30
2022-12-03T05:14:25.446Z,20.62
2022-12-03T05:16:53.252Z,20.58
2022-12-03T05:19:20.710Z,19.03
2022-12-03T05:21:48.116Z,22.33
2022-12-03T05:24:15.844Z,22.62
2022-12-03T05:26:43.269Z,19.52
2022-12-03T05:29:10.655Z,20.10
2022-12-03T05:31:38.359Z,21.63
2022-12-03T05:34:06.001Z,17.15
2022-12-03T05:36:33.411Z,20.35
2022-12-03T05:39:01.110Z,18.65
2022-12-03T05:41:47.618Z,19.70
2022-12-03T05:44:20.254Z,18.67
2022-12-03T05:46:48.007Z,19.27
2022-12-03T05:49:15.830Z,18.42
2022-12-03T05:51:43.557Z,22.37
2022-12-03T05:54:10.994Z,17.52
2022-12-03T05:56:38.718Z,17.33
2022-12-03T05:59:06.202Z,20.73
2022-12-03T06:01:34.484Z,26.30
2022-12-03T06:04:02.274Z,23.08
2022-12-03T06:06:29.721Z,20.40
2022-12-03T06:08:57.177Z,19.50
2022-12-03T06:11:24.893Z,20.83
2022-12-03T06:13:52.539Z,16.40
2022-12-03T06:16:20.056Z,18.25
2022-12-03T06:18:47.958Z,21.40
2022-12-03T06:21:15.467Z,21.83
2022-12-03T06:23:44.821Z,17.17
2022-12-03T06:26:13.707Z,17.75
2022-12-03T06:28:46.413Z,20.37
2022-12-03T06:31:14.658Z,20.00
2022-12-03T06:33:42.082Z,18.73
2022-12-03T06:36:09.661Z,15.48
2022-12-03T06:38:38.058Z,22.20
2022-12-03T06:41:05.636Z,17.10
2022-12-03T06:43:33.274Z,19.12
2022-12-03T06:46:00.996Z,17.40
2022-12-03T06:48:28.457Z,18.35
2022-12-03T06:50:55.875Z,18.42
2022-12-03T06:53:25.469Z,18.00
2022-12-03T06:55:52.925Z,16.77
2022-12-03T06:58:20.357Z,16.00
2022-12-03T07:00:48.098Z,15.50
2022-12-03T07:03:16.421Z,17.42
2022-12-03T07:05:43.873Z,13.95
2022-12-03T07:08:11.597Z,18.25
2022-12-03T07:10:39.117Z,13.30
2022-12-03T07:13:06.530Z,13.07
2022-12-03T07:15:34.263Z,14.10
2022-12-03T07:18:01.743Z,13.10
2022-12-03T07:20:29.253Z,14.68
2022-12-03T07:22:57.707Z,12.53
2022-12-03T07:25:25.194Z,13.60
2022-12-03T07:27:52.754Z,14.35
2022-12-03T07:30:20.505Z,11.30
2022-12-03T07:32:47.890Z,10.45
2022-12-03T07:35:15.369Z,11.40
2022-12-03T07:37:43.327Z,9.93
2022-12-03T07:40:11.801Z,10.15
2022-12-03T07:42:39.279Z,9.52
2022-12-03T07:45:07.753Z,12.57
2022-12-03T07:47:35.161Z,13.20
2022-12-03T07:50:02.630Z,12.48
2022-12-03T07:52:30.331Z,13.80
2022-12-03T07:54:57.739Z,13.75
2022-12-03T07:57:25.128Z,14.98
2022-12-03T07:59:52.800Z,13.80
2022-12-03T08:02:21.859Z,12.90
2022-12-03T08:04:49.813Z,30.37
2022-12-03T08:07:17.211Z,14.68
2022-12-03T08:09:44.802Z,11.57
2022-12-03T08:12:22.919Z,14.17
2022-12-03T08:14:50.417Z,13.10
2022-12-03T08:17:19.893Z,13.27
2022-12-03T08:19:48.148Z,13.23
2022-12-03T08:22:16.446Z,16.02
2022-12-03T08:24:44.419Z,16.87
2022-12-03T08:27:18.265Z,16.37
2022-12-03T08:29:46.801Z,16.95
2022-12-03T08:32:14.384Z,15.25
2022-12-03T08:34:44.257Z,13.48
2022-12-03T08:37:19.605Z,11.90
2022-12-03T08:39:54.522Z,13.20
2022-12-03T08:42:42.083Z,10.55
2022-12-03T08:45:29.215Z,8.80
2022-12-03T08:48:14.983Z,9.48
2022-12-03T08:50:43.314Z,6.83
2022-12-03T08:53:13.807Z,8.85
2022-12-03T08:55:51.679Z,10.68
2022-12-03T08:58:33.959Z,9.10
2022-12-03T09:01:10.675Z,9.27
2022-12-03T09:03:51.235Z,7.90
2022-12-03T09:06:19.008Z,8.20
2022-12-03T09:08:47.406Z,9.63
2022-12-03T09:11:15.650Z,7.45
2022-12-03T09:13:43.183Z,11.00
2022-12-03T09:16:11.019Z,8.10
2022-12-03T09:18:38.557Z,9.70
2022-12-03T09:21:06.305Z,8.70
2022-12-03T09:23:34.017Z,11.77
2022-12-03T09:26:01.398Z,9.25
2022-12-03T09:28:28.871Z,9.17
2022-12-03T09:30:56.566Z,11.02
2022-12-03T09:33:24.027Z,11.27
2022-12-03T09:35:51.538Z,12.57
2022-12-03T09:38:19.279Z,11.02
2022-12-03T09:40:46.712Z,12.13
2022-12-03T09:43:14.133Z,10.35
2022-12-03T09:45:44.448Z,10.88
2022-12-03T09:48:15.207Z,13.95
2022-12-03T09:50:43.731Z,15.98
2022-12-03T09:53:16.018Z,16.60
2022-12-03T09:55:46.041Z,13.40
2022-12-03T09:58:16.094Z,14.60
2022-12-03T10:00:48.051Z,15.50
2022-12-03T10:03:18.781Z,15.50
2022-12-03T10:05:48.321Z,13.73
2022-12-03T10:08:21.350Z,14.15
2022-12-03T10:10:54.335Z,14.50
2022-12-03T10:13:28.778Z,14.52
2022-12-03T10:15:58.634Z,14.87
2022-12-03T10:18:30.860Z,15.27
2022-12-03T10:20:59.139Z,15.75
2022-12-03T10:23:29.751Z,12.70
2022-12-03T10:26:00.396Z,14.87
2022-12-03T10:28:36.867Z,13.75
2022-12-03T10:31:07.400Z,18.70
2022-12-03T10:33:38.119Z,16.45
2022-12-03T10:36:17.602Z,16.83
2022-12-03T10:38:45.353Z,16.42
2022-12-03T10:41:27.418Z,15.13
2022-12-03T10:44:19.444Z,15.13
2022-12-03T10:47:09.896Z,14.82
2022-12-03T10:49:38.467Z,16.70
2022-12-03T10:52:07.083Z,14.15
2022-12-03T10:54:35.334Z,15.70
2022-12-03T10:57:03.301Z,15.53
2022-12-03T10:59:33.517Z,16.95
2022-12-03T11:02:03.985Z,18.23
2022-12-03T11:04:36.615Z,16.15
2022-12-03T11:07:14.203Z,18.87
2022-12-03T11:09:45.368Z,19.87
2022-12-03T11:12:28.074Z,20.50
2022-12-03T11:14:56.810Z,20.95
2022-12-03T11:17:46.640Z,19.62
2022-12-03T11:20:22.902Z,17.87
2022-12-03T11:22:52.553Z,20.03
2022-12-03T11:25:26.200Z,24.00
2022-12-03T11:28:15.192Z,21.25
2022-12-03T11:30:48.985Z,20.23
2022-12-03T11:33:33.113Z,23.40
2022-12-03T11:36:03.504Z,19.70
2022-12-03T11:38:36.995Z,19.95
2022-12-03T11:41:12.590Z,21.12
2022-12-03T11:43:52.237Z,19.45
2022-12-03T11:46:32.148Z,20.95
2022-12-03T11:49:00.170Z,21.23
2022-12-03T11:51:29.857Z,22.85
2022-12-03T11:53:59.475Z,23.75
2022-12-03T11:56:28.721Z,20.45
2022-12-03T11:59:04.659Z,23.20
2022-12-03T12:01:38.589Z,21.70
2022-12-03T12:04:08.734Z,19.42
2022-12-03T12:06:48.704Z,21.20
2022-12-03T12:09:49.399Z,19.87
2022-12-03T12:12:31.050Z,25.17
2022-12-03T12:14:59.315Z,21.60
2022-12-03T12:17:44.648Z,20.20
2022-12-03T12:20:25.642Z,19.80
2022-12-03T12:22:54.743Z,23.48
2022-12-03T12:25:38.458Z,22.37
2022-12-03T12:28:06.760Z,21.50
2022-12-03T12:30:34.601Z,22.50
2022-12-03T12:33:19.708Z,22.27
2022-12-03T12:35:47.442Z,21.98
2022-12-03T12:38:19.909Z,23.17
2022-12-03T12:40:50.136Z,23.70
2022-12-03T12:43:33.872Z,23.40
2022-12-03T12:46:45.512Z,29.23
2022-12-03T12:49:00.071Z,27.05
2022-12-03T12:51:27.944Z,21.85
2022-12-03T12:53:57.535Z,19.50
2022-12-03T12:56:32.960Z,22.27
2022-12-03T12:59:26.710Z,20.62
2022-12-03T13:01:54.418Z,22.50
2022-12-03T13:04:24.257Z,24.63
2022-12-03T13:06:54.063Z,21.30
2022-12-03T13:09:25.137Z,22.02
2022-12-03T13:11:55.786Z,26.12
2022-12-03T13:14:31.860Z,21.45
2022-12-03T13:17:01.749Z,20.25
2022-12-03T13:19:39.629Z,22.33
2022-12-03T13:22:20.478Z,20.37
2022-12-03T13:24:53.086Z,22.52
2022-12-03T13:27:20.549Z,23.90
2022-12-03T13:29:55.051Z,22.65
2022-12-03T13:32:34.500Z,21.83
2022-12-03T13:35:06.965Z,21.35
2022-12-03T13:37:34.693Z,21.67
2022-12-03T13:40:21.041Z,21.65
2022-12-03T13:42:48.719Z,21.42
2022-12-03T13:45:16.403Z,20.03
2022-12-03T13:47:49.534Z,23.42
2022-12-03T13:50:39.058Z,22.58
2022-12-03T13:53:21.464Z,21.60
2022-12-03T13:56:28.598Z,23.98
2022-12-03T13:58:57.943Z,23.83
2022-12-03T14:01:26.357Z,25.37
2022-12-03T14:03:54.204Z,23.92
2022-12-03T14:06:21.694Z,23.42
2022-12-03T14:08:49.157Z,27.83
2022-12-03T14:11:35.558Z,23.87
2022-12-03T14:14:03.160Z,28.83
2022-12-03T14:16:30.942Z,22.08
2022-12-03T14:18:58.451Z,25.52
2022-12-03T14:21:25.930Z,28.62
2022-12-03T14:23:53.816Z,25.70
2022-12-03T14:26:21.378Z,27.35
2022-12-03T14:28:48.892Z,27.55
2022-12-03T14:31:16.670Z,25.67
2022-12-03T14:33:44.117Z,24.27
2022-12-03T14:36:11.558Z,27.63
2022-12-03T14:38:39.294Z,28.98
2022-12-03T14:41:26.718Z,28.70
2022-12-03T14:43:54.473Z,26.02
2022-12-03T14:46:22.024Z,26.02
2022-12-03T14:48:49.557Z,25.30
2022-12-03T14:51:17.252Z,23.67
2022-12-03T14:53:44.641Z,24.87
2022-12-03T14:56:12.165Z,24.70
2022-12-03T14:58:40.142Z,24.40
2022-12-03T15:01:07.639Z,22.83
2022-12-03T15:03:35.128Z,23.15
2022-12-03T15:06:02.833Z,26.12
2022-12-03T15:08:30.259Z,22.45
2022-12-03T15:10:57.743Z,28.48
2022-12-03T15:13:25.427Z,27.23
2022-12-03T15:15:52.895Z,26.30
2022-12-03T15:18:20.355Z,27.17
2022-12-03T15:20:49.637Z,27.45
2022-12-03T15:23:17.106Z,25.40
2022-12-03T15:25:44.638Z,25.27
2022-12-03T15:28:12.409Z,23.95
2022-12-03T15:30:39.918Z,21.42
2022-12-03T15:33:08.129Z,25.40
2022-12-03T15:35:36.303Z,28.95
2022-12-03T15:38:03.705Z,23.80
2022-12-03T15:40:31.563Z,22.05
2022-12-03T15:42:59.454Z,22.90
2022-12-03T15:45:26.915Z,24.40
2022-12-03T15:47:54.361Z,23.25
2022-12-03T15:50:22.154Z,22.80
2022-12-03T15:52:49.644Z,21.52
2022-12-03T15:55:17.133Z,21.60
2022-12-03T15:57:45.215Z,25.00
2022-12-03T16:00:14.159Z,23.27
2022-12-03T16:02:47.525Z,21.23
2022-12-03T16:05:18.494Z,21.75
2022-12-03T16:07:46.262Z,22.98
2022-12-03T16:10:13.812Z,22.45
2022-12-03T16:12:41.234Z,20.98
2022-12-03T16:15:09.366Z,24.47
2022-12-03T16:17:36.758Z,21.55
2022-12-03T16:20:05.339Z,21.92
2022-12-03T16:22:33.063Z,24.37
2022-12-03T16:25:00.473Z,23.08
2022-12-03T16:27:27.871Z,21.90
2022-12-03T16:29:57.014Z,23.40
2022-12-03T16:32:24.763Z,23.10
2022-12-03T16:34:52.271Z,21.77
2022-12-03T16:37:20.016Z,20.42
2022-12-03T16:39:48.099Z,24.67
2022-12-03T16:42:17.591Z,24.30
2022-12-03T16:45:03.786Z,26.10
2022-12-03T16:47:34.239Z,21.92
2022-12-03T16:50:04.222Z,24.70
2022-12-03T16:52:32.212Z,24.03
2022-12-03T16:54:59.703Z,23.87
2022-12-03T16:57:33.669Z,22.83
2022-12-03T17:00:01.699Z,22.60
2022-12-03T17:02:29.554Z,24.40
2022-12-03T17:04:56.999Z,19.87
2022-12-03T17:07:24.450Z,22.58
2022-12-03T17:09:52.537Z,22.00
2022-12-03T17:12:20.240Z,20.42
2022-12-03T17:14:47.690Z,19.67
2022-12-03T17:17:15.390Z,22.13
2022-12-03T17:19:42.842Z,19.08
2022-12-03T17:22:10.344Z,21.45
2022-12-03T17:24:38.071Z,20.15
2022-12-03T17:27:06.374Z,21.42
2022-12-03T17:29:33.814Z,19.57
2022-12-03T17:32:01.638Z,20.12
2022-12-03T17:34:29.235Z,21.73
2022-12-03T17:36:56.676Z,19.83
2022-12-03T17:39:24.407Z,20.65
2022-12-03T17:41:51.883Z,23.97
2022-12-03T17:44:21.236Z,20.27
2022-12-03T17:46:49.392Z,21.12
2022-12-03T17:49:17.064Z,21.05
2022-12-03T17:51:44.503Z,20.85
2022-12-03T17:54:12.236Z,17.20
2022-12-03T17:56:43.428Z,21.83
2022-12-03T17:59:12.052Z,20.60
2022-12-03T18:01:40.363Z,19.48
2022-12-03T18:04:09.793Z,17.98
2022-12-03T18:06:38.018Z,16.10
2022-12-03T18:09:05.651Z,20.20
2022-12-03T18:11:33.767Z,17.80
2022-12-03T18:14:01.546Z,17.67
2022-12-03T18:16:29.401Z,17.02
2022-12-03T18:19:00.892Z,15.57
2022-12-03T18:40:23.760Z,14.70
2022-12-03T18:42:51.735Z,17.10
2022-12-03T18:45:19.608Z,13.00
2022-12-03T18:47:47.737Z,13.52
2022-12-03T18:50:15.549Z,15.50
2022-12-03T18:52:42.977Z,13.35
2022-12-03T18:55:17.911Z,16.08
2022-12-03T18:57:46.069Z,11.70
2022-12-03T19:00:14.560Z,13.27
2022-12-03T19:05:31.204Z,12.85
2022-12-03T19:07:58.873Z,15.25
2022-12-03T19:10:26.980Z,11.53
2022-12-03T19:12:54.823Z,13.38
2022-12-03T19:15:22.881Z,13.10
2022-12-03T19:17:50.918Z,12.10
2022-12-03T19:20:18.694Z,13.98
2022-12-03T19:22:46.317Z,12.27
2022-12-03T19:25:13.835Z,14.82
2022-12-03T19:27:41.583Z,12.20
2022-12-03T19:30:10.163Z,11.90
2022-12-03T19:32:37.652Z,15.25
2022-12-03T19:35:07.614Z,14.20
2022-12-03T19:37:35.062Z,12.25
2022-12-03T19:40:02.937Z,12.98
2022-12-03T19:42:31.276Z,14.98
2022-12-03T19:44:58.742Z,15.25
2022-12-03T19:47:26.375Z,14.63
2022-12-03T19:49:54.333Z,14.55
2022-12-03T19:52:21.893Z,15.45
2022-12-03T19:54:49.365Z,15.23
2022-12-03T19:57:23.005Z,13.95
2022-12-03T19:59:51.093Z,16.77
2022-12-03T20:02:18.992Z,12.77
2022-12-03T20:04:46.838Z,13.88
2022-12-03T20:07:14.376Z,14.77
2022-12-03T20:09:41.854Z,13.85
2022-12-03T20:12:09.680Z,14.83
2022-12-03T20:14:37.134Z,15.68
2022-12-03T20:17:04.672Z,13.75
2022-12-03T20:19:32.496Z,13.50
2022-12-03T20:22:02.773Z,14.80
2022-12-03T20:24:30.625Z,13.43
2022-12-03T20:26:58.363Z,12.73
2022-12-03T20:29:25.785Z,15.02
2022-12-03T20:31:53.396Z,13.93
2022-12-03T20:34:21.175Z,13.90
2022-12-03T20:36:48.675Z,15.27
2022-12-03T20:39:16.099Z,18.15
2022-12-03T20:41:43.826Z,15.05
2022-12-03T20:44:11.307Z,15.75
2022-12-03T20:46:38.757Z,14.15
2022-12-03T20:49:06.539Z,13.93
2022-12-03T20:51:34.314Z,15.45
2022-12-03T20:54:02.301Z,17.85
2022-12-03T20:56:35.402Z,15.00
2022-12-03T20:59:05.354Z,15.98
2022-12-03T21:01:34.473Z,15.80
2022-12-03T21:04:03.361Z,13.95
2022-12-03T21:06:32.343Z,15.52
2022-12-03T21:09:00.993Z,13.55
2022-12-03T21:11:31.045Z,16.35
2022-12-03T21:13:59.730Z,16.10
2022-12-03T21:16:59.128Z,14.75
2022-12-03T21:19:20.245Z,14.70
2022-12-03T21:21:48.996Z,18.02
2022-12-03T21:24:16.610Z,15.80
2022-12-03T21:26:44.131Z,17.17
2022-12-03T21:29:11.928Z,17.17
2022-12-03T21:31:40.049Z,16.00
2022-12-03T21:34:08.829Z,16.48
2022-12-03T21:36:36.682Z,18.50
2022-12-03T21:39:05.305Z,17.30
2022-12-03T21:41:33.098Z,17.15
2022-12-03T21:44:01.124Z,16.25
2022-12-03T21:47:09.876Z,18.02
2022-12-03T21:49:19.405Z,15.38
2022-12-03T21:51:46.886Z,21.20
2022-12-03T21:54:15.177Z,17.90
2022-12-03T21:56:42.937Z,15.15
2022-12-03T21:59:10.455Z,19.20
2022-12-03T22:01:39.667Z,18.40
2022-12-03T22:04:10.517Z,19.93
2022-12-03T22:06:37.967Z,18.10
2022-12-03T22:09:05.406Z,19.50
2022-12-03T22:11:33.142Z,17.77
2022-12-03T22:14:00.608Z,17.60
2022-12-03T22:16:28.043Z,16.30
2022-12-03T22:18:55.773Z,16.98
2022-12-03T22:21:25.417Z,17.42
2022-12-03T22:23:52.859Z,14.25
2022-12-03T22:26:20.563Z,17.62
2022-12-03T22:28:49.713Z,17.23
2022-12-03T22:31:18.460Z,19.42
2022-12-03T22:33:48.487Z,18.62
2022-12-03T22:36:20.947Z,15.50
2022-12-03T22:38:51.061Z,21.60
2022-12-03T22:41:19.684Z,19.07
2022-12-03T22:43:48.155Z,14.82
2022-12-03T22:46:17.140Z,18.52
2022-12-03T22:48:47.472Z,19.25
2022-12-03T22:51:21.266Z,19.12
2022-12-03T22:53:57.051Z,18.83
2022-12-03T22:56:25.919Z,17.00
2022-12-03T22:58:53.848Z,16.35
2022-12-03T23:01:28.707Z,18.02
2022-12-03T23:03:56.953Z,15.20
2022-12-03T23:06:24.675Z,18.60
2022-12-03T23:08:52.508Z,17.42
2022-12-03T23:11:20.886Z,17.45
2022-12-03T23:13:48.637Z,19.45
2022-12-03T23:16:19.301Z,16.60
2022-12-03T23:18:47.094Z,16.27
2022-12-03T23:21:17.074Z,16.85
2022-12-03T23:23:45.026Z,17.98
2022-12-03T23:26:14.072Z,16.35
2022-12-03T23:28:43.378Z,20.02
2022-12-03T23:31:29.958Z,17.57
2022-12-03T23:33:58.598Z,19.35
2022-12-03T23:36:28.082Z,19.55
2022-12-03T23:38:55.663Z,19.15
2022-12-03T23:41:24.693Z,23.20
2022-12-03T23:43:52.609Z,22.97
2022-12-03T23:46:23.115Z,20.77
2022-12-03T23:48:51.725Z,20.30
2022-12-03T23:51:22.578Z,19.75
2022-12-03T23:53:50.530Z,23.92
2022-12-03T23:56:21.996Z,21.90
2022-12-03T23:58:49.922Z,25.37
